Time;durP1;ratioP1;P1;durP2;ratioP2;P2;SDS_P1;SDS_P2;PMS_P1;PMS_P2;Temp;Humidity;BMP_temperature;BMP_pressure;BME280_temperature;BME280_humidity;BME280_pressure;Samples;Min_cycle;Max_cycle;Signal;HPM_P1;HPM_P2
2021/12/30 00:00:36;;;;;;;6.45;3.00;;;;;;;;;;4999588;28;20049;-70
2021/12/30 00:03:06;;;;;;;5.55;2.58;;;;;;;;;;5021640;28;20523;-66
2021/12/30 00:05:33;;;;;;;7.93;3.05;;;;;;;;;;5002771;28;20057;-67
2021/12/30 00:07:59;;;;;;;7.10;3.40;;;;;;;;;;5000061;28;20926;-68
2021/12/30 00:10:25;;;;;;;8.32;3.58;;;;;;;;;;5018216;28;20790;-66
2021/12/30 00:12:53;;;;;;;8.45;2.92;;;;;;;;;;5018859;28;20076;-65
2021/12/30 00:15:20;;;;;;;5.00;3.00;;;;;;;;;;4998734;28;20076;-65
2021/12/30 00:17:47;;;;;;;5.80;2.45;;;;;;;;;;5018205;28;20487;-68
2021/12/30 00:20:14;;;;;;;7.30;2.85;;;;;;;;;;5018969;28;20053;-73
2021/12/30 00:22:41;;;;;;;4.60;2.58;;;;;;;;;;4987257;28;20064;-69
2021/12/30 00:25:11;;;;;;;9.10;2.80;;;;;;;;;;5005390;28;20164;-68
2021/12/30 00:27:38;;;;;;;4.10;2.63;;;;;;;;;;5021714;28;20166;-71
2021/12/30 00:30:07;;;;;;;6.93;2.53;;;;;;;;;;5020703;28;20045;-70
2021/12/30 00:32:34;;;;;;;5.95;3.15;;;;;;;;;;5017291;28;20050;-70
2021/12/30 00:35:00;;;;;;;6.05;2.80;;;;;;;;;;4992126;28;20176;-66
2021/12/30 00:37:26;;;;;;;5.50;2.40;;;;;;;;;;5019497;28;20045;-67
2021/12/30 00:39:53;;;;;;;6.82;3.10;;;;;;;;;;5002143;28;20037;-68
2021/12/30 00:42:19;;;;;;;6.47;2.60;;;;;;;;;;5021371;28;20116;-67
2021/12/30 00:44:45;;;;;;;4.90;2.33;;;;;;;;;;5002467;28;20056;-75
2021/12/30 00:47:11;;;;;;;5.53;2.97;;;;;;;;;;5002006;28;20053;-71
2021/12/30 00:49:38;;;;;;;4.97;2.58;;;;;;;;;;5004401;28;20073;-71
2021/12/30 00:52:04;;;;;;;4.75;2.53;;;;;;;;;;5019803;28;20499;-68
2021/12/30 00:54:31;;;;;;;5.05;2.38;;;;;;;;;;5003332;28;20176;-69
2021/12/30 00:56:59;;;;;;;5.43;1.90;;;;;;;;;;5022661;28;20132;-66
2021/12/30 00:59:26;;;;;;;3.97;2.00;;;;;;;;;;5022935;28;20064;-67
2021/12/30 01:01:52;;;;;;;4.95;1.83;;;;;;;;;;5014407;28;20069;-65
2021/12/30 01:04:20;;;;;;;3.92;2.30;;;;;;;;;;5022721;28;20085;-72
2021/12/30 01:06:47;;;;;;;3.78;2.30;;;;;;;;;;5020587;28;20510;-69
2021/12/30 01:09:13;;;;;;;7.05;2.70;;;;;;;;;;5006181;28;20049;-68
2021/12/30 01:11:40;;;;;;;5.25;1.92;;;;;;;;;;5023530;28;20057;-70
2021/12/30 01:14:19;;;;;;;6.28;2.42;;;;;;;;;;5023751;28;20088;-73
2021/12/30 01:16:50;;;;;;;3.95;1.90;;;;;;;;;;4982131;28;20049;-71
2021/12/30 01:22:01;;;;;;;3.78;1.92;;;;;;;;;;5001164;28;20153;-69
2021/12/30 01:24:27;;;;;;;6.07;2.20;;;;;;;;;;5021236;28;20057;-70
2021/12/30 01:26:54;;;;;;;5.65;2.00;;;;;;;;;;5003998;28;20041;-70
2021/12/30 01:29:20;;;;;;;6.68;2.22;;;;;;;;;;4993032;28;20045;-69
2021/12/30 01:31:46;;;;;;;6.93;2.25;;;;;;;;;;5022023;28;20080;-75
2021/12/30 01:34:12;;;;;;;3.83;2.05;;;;;;;;;;5006918;28;20481;-68
2021/12/30 01:36:39;;;;;;;3.95;2.20;;;;;;;;;;5021945;28;20049;-69
2021/12/30 01:39:04;;;;;;;7.38;2.20;;;;;;;;;;5004432;28;20045;-67
2021/12/30 01:41:30;;;;;;;3.72;2.30;;;;;;;;;;5010774;28;20094;-72
2021/12/30 01:43:56;;;;;;;3.15;2.00;;;;;;;;;;5021502;28;20376;-72
2021/12/30 01:46:23;;;;;;;5.95;2.40;;;;;;;;;;5001813;28;20156;-67
2021/12/30 01:48:49;;;;;;;5.38;2.38;;;;;;;;;;5003050;28;20049;-73
2021/12/30 01:51:16;;;;;;;7.78;2.60;;;;;;;;;;5023776;28;20052;-66
2021/12/30 01:53:43;;;;;;;7.72;2.70;;;;;;;;;;5019338;28;20046;-70
2021/12/30 01:56:09;;;;;;;4.68;2.38;;;;;;;;;;5021494;28;20061;-72
2021/12/30 01:58:36;;;;;;;6.30;2.80;;;;;;;;;;5020916;28;20054;-68
2021/12/30 02:01:03;;;;;;;5.50;2.33;;;;;;;;;;5019406;28;20053;-69
2021/12/30 02:03:29;;;;;;;7.47;2.40;;;;;;;;;;5000091;28;20115;-66
2021/12/30 02:05:56;;;;;;;4.82;2.40;;;;;;;;;;5000967;28;20124;-67
2021/12/30 02:08:22;;;;;;;4.70;2.38;;;;;;;;;;5018314;28;20136;-68
2021/12/30 02:10:50;;;;;;;4.30;2.47;;;;;;;;;;5005066;28;20054;-74
2021/12/30 02:13:18;;;;;;;4.05;2.80;;;;;;;;;;5019790;28;20523;-69
2021/12/30 02:15:45;;;;;;;3.20;2.15;;;;;;;;;;5023637;28;20376;-71
2021/12/30 02:18:11;;;;;;;4.57;2.70;;;;;;;;;;5017913;28;20438;-70
2021/12/30 02:20:58;;;;;;;6.35;3.40;;;;;;;;;;5004389;28;20071;-72
2021/12/30 02:23:27;;;;;;;6.25;2.88;;;;;;;;;;5003784;28;20128;-66
2021/12/30 02:25:58;;;;;;;5.95;2.83;;;;;;;;;;5001596;28;20057;-66
2021/12/30 02:28:29;;;;;;;6.82;2.88;;;;;;;;;;5003470;28;20061;-71
2021/12/30 02:30:58;;;;;;;7.30;3.00;;;;;;;;;;5017822;28;20096;-68
2021/12/30 02:33:26;;;;;;;4.97;2.58;;;;;;;;;;5002079;28;20041;-68
2021/12/30 02:35:54;;;;;;;3.63;2.45;;;;;;;;;;5004233;28;20841;-68
2021/12/30 02:38:22;;;;;;;7.10;3.00;;;;;;;;;;5018739;28;20136;-67
2021/12/30 02:40:52;;;;;;;5.95;2.90;;;;;;;;;;5020187;28;20340;-66
2021/12/30 02:43:21;;;;;;;5.05;3.20;;;;;;;;;;5001951;28;20131;-71
2021/12/30 02:45:47;;;;;;;6.32;3.03;;;;;;;;;;5000823;28;20149;-70
2021/12/30 02:48:20;;;;;;;7.20;2.88;;;;;;;;;;5017069;28;20533;-74
2021/12/30 02:50:48;;;;;;;6.18;3.10;;;;;;;;;;5001351;28;20041;-70
2021/12/30 02:53:14;;;;;;;9.15;2.97;;;;;;;;;;5000027;28;20064;-65
2021/12/30 02:55:43;;;;;;;6.38;2.97;;;;;;;;;;5016552;28;20045;-68
2021/12/30 02:58:11;;;;;;;6.63;2.95;;;;;;;;;;5001326;28;20061;-66
2021/12/30 03:00:38;;;;;;;4.57;2.60;;;;;;;;;;4986391;28;20122;-66
2021/12/30 03:03:04;;;;;;;4.68;2.80;;;;;;;;;;5000150;28;20053;-66
2021/12/30 03:05:32;;;;;;;5.57;2.78;;;;;;;;;;5016748;28;20479;-68
2021/12/30 03:07:58;;;;;;;4.20;2.55;;;;;;;;;;5015704;28;20049;-73
2021/12/30 03:10:28;;;;;;;5.75;2.95;;;;;;;;;;4995665;28;20053;-66
2021/12/30 03:13:03;;;;;;;5.13;2.85;;;;;;;;;;5001290;28;20045;-66
2021/12/30 03:15:32;;;;;;;3.97;2.45;;;;;;;;;;5018267;28;20128;-70
2021/12/30 03:17:59;;;;;;;5.07;2.60;;;;;;;;;;5016182;28;20410;-75
2021/12/30 03:20:25;;;;;;;4.53;2.45;;;;;;;;;;5000731;28;20068;-72
2021/12/30 03:22:51;;;;;;;6.43;2.60;;;;;;;;;;5018599;28;20494;-69
2021/12/30 03:25:18;;;;;;;5.18;2.25;;;;;;;;;;5004075;28;20663;-73
2021/12/30 03:27:44;;;;;;;5.22;2.53;;;;;;;;;;5001244;28;20053;-68
2021/12/30 03:30:14;;;;;;;4.75;2.30;;;;;;;;;;5018626;28;20061;-66
2021/12/30 03:32:41;;;;;;;4.93;2.25;;;;;;;;;;5014417;28;20136;-65
2021/12/30 03:35:08;;;;;;;4.70;2.50;;;;;;;;;;5022026;28;20045;-65
2021/12/30 03:37:34;;;;;;;4.70;2.80;;;;;;;;;;5002605;28;20061;-72
2021/12/30 03:40:01;;;;;;;9.05;2.95;;;;;;;;;;5006106;28;20064;-64
2021/12/30 03:42:28;;;;;;;5.22;2.55;;;;;;;;;;5022219;28;20123;-65
2021/12/30 03:44:56;;;;;;;4.47;2.28;;;;;;;;;;5002649;28;20076;-71
2021/12/30 03:47:23;;;;;;;4.07;2.47;;;;;;;;;;5021091;28;20129;-64
2021/12/30 03:49:50;;;;;;;5.70;2.60;;;;;;;;;;5022281;28;20108;-65
2021/12/30 03:52:23;;;;;;;4.95;2.50;;;;;;;;;;5022541;28;20198;-72
2021/12/30 03:54:50;;;;;;;5.18;2.25;;;;;;;;;;4975672;28;20085;-72
2021/12/30 03:57:16;;;;;;;6.35;2.72;;;;;;;;;;4977174;28;20050;-73
2021/12/30 03:59:44;;;;;;;5.38;2.20;;;;;;;;;;4961569;28;20137;-66
2021/12/30 04:02:11;;;;;;;4.05;2.28;;;;;;;;;;4982067;28;20126;-71
2021/12/30 04:04:38;;;;;;;6.50;2.67;;;;;;;;;;4979687;28;20515;-67
2021/12/30 04:07:05;;;;;;;4.03;2.50;;;;;;;;;;4979206;28;20751;-67
2021/12/30 04:09:31;;;;;;;3.90;2.30;;;;;;;;;;4991135;28;20201;-65
2021/12/30 04:11:58;;;;;;;3.60;2.33;;;;;;;;;;4977362;28;20054;-64
2021/12/30 04:14:26;;;;;;;4.30;2.38;;;;;;;;;;4975445;28;20208;-69
2021/12/30 04:16:53;;;;;;;5.57;2.63;;;;;;;;;;4957311;28;20538;-72
2021/12/30 04:19:19;;;;;;;6.13;2.42;;;;;;;;;;4978598;28;20048;-71
2021/12/30 04:21:46;;;;;;;5.00;1.98;;;;;;;;;;4975027;28;20050;-69
2021/12/30 04:24:12;;;;;;;3.97;2.42;;;;;;;;;;4973766;28;20065;-65
2021/12/30 04:26:38;;;;;;;5.93;2.60;;;;;;;;;;4977271;28;20477;-67
2021/12/30 04:29:05;;;;;;;4.85;2.55;;;;;;;;;;4974979;28;20050;-71
2021/12/30 04:31:32;;;;;;;6.97;2.47;;;;;;;;;;4975867;28;20442;-69
2021/12/30 04:33:59;;;;;;;4.13;2.40;;;;;;;;;;4978000;28;20435;-67
2021/12/30 04:36:25;;;;;;;4.85;2.58;;;;;;;;;;4973695;28;20074;-70
2021/12/30 04:38:51;;;;;;;5.85;2.50;;;;;;;;;;4973770;28;20047;-67
2021/12/30 04:41:18;;;;;;;3.95;2.33;;;;;;;;;;4955808;28;20047;-68
2021/12/30 04:43:44;;;;;;;4.55;2.50;;;;;;;;;;4978878;28;20047;-67
2021/12/30 04:46:10;;;;;;;5.45;2.38;;;;;;;;;;4974586;28;20089;-73
2021/12/30 04:48:37;;;;;;;3.75;2.38;;;;;;;;;;4978683;28;20168;-66
2021/12/30 04:51:03;;;;;;;3.85;2.35;;;;;;;;;;4995092;28;20145;-65
2021/12/30 04:53:30;;;;;;;5.18;2.22;;;;;;;;;;4978403;28;20125;-70
2021/12/30 04:55:56;;;;;;;4.65;2.67;;;;;;;;;;4982932;28;20510;-68
2021/12/30 04:58:22;;;;;;;5.25;2.33;;;;;;;;;;4980161;28;20953;-67
2021/12/30 05:00:49;;;;;;;4.70;2.30;;;;;;;;;;4982668;28;20046;-68
2021/12/30 05:03:16;;;;;;;6.18;2.47;;;;;;;;;;4977841;28;20396;-76
2021/12/30 05:05:48;;;;;;;5.53;2.30;;;;;;;;;;4982486;28;20066;-76
2021/12/30 05:08:16;;;;;;;6.25;2.30;;;;;;;;;;4982397;28;20054;-66
2021/12/30 05:10:43;;;;;;;4.05;2.30;;;;;;;;;;4985360;28;20629;-72
2021/12/30 05:13:10;;;;;;;6.60;2.47;;;;;;;;;;4982317;28;20102;-66
2021/12/30 05:15:37;;;;;;;7.45;2.78;;;;;;;;;;4979661;28;20525;-67
2021/12/30 05:18:05;;;;;;;4.68;2.50;;;;;;;;;;4978901;28;20050;-67
2021/12/30 05:20:31;;;;;;;5.10;2.42;;;;;;;;;;4980326;28;20080;-70
2021/12/30 05:22:58;;;;;;;2.90;2.20;;;;;;;;;;4982539;28;20496;-68
2021/12/30 05:25:26;;;;;;;3.85;2.42;;;;;;;;;;4980853;28;20133;-64
2021/12/30 05:27:52;;;;;;;6.28;2.67;;;;;;;;;;4979657;28;20055;-69
2021/12/30 05:30:21;;;;;;;4.30;2.58;;;;;;;;;;4977717;28;20101;-70
2021/12/30 05:32:48;;;;;;;5.30;2.85;;;;;;;;;;4982839;28;20050;-67
2021/12/30 05:35:16;;;;;;;4.63;2.30;;;;;;;;;;4977884;28;20070;-69
2021/12/30 05:37:43;;;;;;;3.55;2.33;;;;;;;;;;4980864;28;20504;-68
2021/12/30 05:40:17;;;;;;;5.57;2.40;;;;;;;;;;4980497;28;20061;-66
2021/12/30 05:42:44;;;;;;;4.85;2.72;;;;;;;;;;4981290;28;20046;-65
2021/12/30 05:45:14;;;;;;;5.90;2.97;;;;;;;;;;4981014;28;20182;-68
2021/12/30 05:47:41;;;;;;;7.13;2.65;;;;;;;;;;4980138;28;20047;-68
2021/12/30 05:50:09;;;;;;;9.27;2.85;;;;;;;;;;4978789;28;20467;-68
2021/12/30 05:52:36;;;;;;;6.50;2.90;;;;;;;;;;4981764;28;20065;-67
2021/12/30 05:55:04;;;;;;;6.93;3.15;;;;;;;;;;5020112;28;20128;-66
2021/12/30 05:57:30;;;;;;;6.97;2.83;;;;;;;;;;5000438;28;20416;-67
2021/12/30 05:59:58;;;;;;;5.97;2.65;;;;;;;;;;5001212;28;20064;-71
2021/12/30 06:02:25;;;;;;;6.93;2.92;;;;;;;;;;5018284;28;20053;-74
2021/12/30 06:04:51;;;;;;;5.00;2.72;;;;;;;;;;5001615;28;20075;-66
2021/12/30 06:07:17;;;;;;;4.80;2.83;;;;;;;;;;5020634;28;20359;-68
2021/12/30 06:09:44;;;;;;;5.85;2.65;;;;;;;;;;5020985;28;20107;-70
2021/12/30 06:12:10;;;;;;;4.85;2.88;;;;;;;;;;5002759;28;20061;-65
2021/12/30 06:14:37;;;;;;;7.30;3.03;;;;;;;;;;5002730;28;20978;-66
2021/12/30 06:17:03;;;;;;;5.80;2.65;;;;;;;;;;4999677;28;20077;-69
2021/12/30 06:19:29;;;;;;;4.88;2.97;;;;;;;;;;4987720;28;20140;-65
2021/12/30 06:21:56;;;;;;;4.53;3.00;;;;;;;;;;5021055;28;20117;-66
2021/12/30 06:24:22;;;;;;;8.07;3.40;;;;;;;;;;5019864;28;20041;-69
2021/12/30 06:26:48;;;;;;;5.38;3.03;;;;;;;;;;5000660;28;20139;-66
2021/12/30 06:29:14;;;;;;;6.35;2.88;;;;;;;;;;5019476;28;20051;-75
2021/12/30 06:31:42;;;;;;;9.90;2.60;;;;;;;;;;5017674;28;20137;-72
2021/12/30 06:34:08;;;;;;;5.65;2.80;;;;;;;;;;5017714;28;20400;-66
2021/12/30 06:36:35;;;;;;;6.43;2.80;;;;;;;;;;5019319;28;20447;-66
2021/12/30 06:39:01;;;;;;;5.38;3.00;;;;;;;;;;5000211;28;20046;-66
2021/12/30 06:41:28;;;;;;;8.00;2.90;;;;;;;;;;4987395;28;20171;-68
2021/12/30 06:43:54;;;;;;;6.93;2.80;;;;;;;;;;5018851;28;20052;-65
2021/12/30 06:46:23;;;;;;;8.80;2.78;;;;;;;;;;5001189;28;20099;-69
2021/12/30 06:48:50;;;;;;;4.70;2.75;;;;;;;;;;4999109;28;20053;-68
2021/12/30 06:51:18;;;;;;;7.00;2.95;;;;;;;;;;4996712;28;20057;-68
2021/12/30 06:53:46;;;;;;;9.32;2.70;;;;;;;;;;5003055;28;20062;-65
2021/12/30 06:56:14;;;;;;;5.32;2.90;;;;;;;;;;5018942;28;20053;-70
2021/12/30 06:58:41;;;;;;;6.15;3.05;;;;;;;;;;5017229;28;20055;-73
2021/12/30 07:01:07;;;;;;;6.03;3.08;;;;;;;;;;5018090;28;20045;-65
2021/12/30 07:03:34;;;;;;;8.70;2.88;;;;;;;;;;5006211;28;21457;-73
2021/12/30 07:06:00;;;;;;;8.07;2.85;;;;;;;;;;4988854;28;20091;-65
2021/12/30 07:08:26;;;;;;;7.55;3.08;;;;;;;;;;5015676;28;20404;-67
2021/12/30 07:10:53;;;;;;;11.73;3.05;;;;;;;;;;5000068;28;20045;-72
2021/12/30 07:13:19;;;;;;;6.80;2.60;;;;;;;;;;5022102;28;20136;-73
2021/12/30 07:15:45;;;;;;;4.95;2.70;;;;;;;;;;5020132;28;20490;-71
2021/12/30 07:18:12;;;;;;;7.82;2.90;;;;;;;;;;5002816;28;20073;-71
2021/12/30 07:20:38;;;;;;;10.27;2.55;;;;;;;;;;5003881;28;20046;-65
2021/12/30 07:23:05;;;;;;;7.53;2.80;;;;;;;;;;5014797;28;20075;-71
2021/12/30 07:25:31;;;;;;;5.22;2.85;;;;;;;;;;5016964;28;20136;-66
2021/12/30 07:27:57;;;;;;;7.18;2.90;;;;;;;;;;4998780;28;20337;-66
2021/12/30 07:30:25;;;;;;;8.48;2.40;;;;;;;;;;5000799;28;20049;-70
2021/12/30 07:32:52;;;;;;;9.63;3.47;;;;;;;;;;5019773;28;20056;-72
2021/12/30 07:35:19;;;;;;;6.65;2.78;;;;;;;;;;4988203;28;20045;-73
2021/12/30 07:37:47;;;;;;;11.05;3.00;;;;;;;;;;5019664;28;20087;-75
2021/12/30 07:40:14;;;;;;;9.90;3.60;;;;;;;;;;5019159;28;20081;-66
2021/12/30 07:42:40;;;;;;;10.75;4.20;;;;;;;;;;5017385;28;20576;-66
2021/12/30 07:45:09;;;;;;;9.52;4.30;;;;;;;;;;5017470;28;20049;-67
2021/12/30 07:47:37;;;;;;;9.57;3.67;;;;;;;;;;5018254;28;20046;-64
2021/12/30 07:50:04;;;;;;;7.95;3.78;;;;;;;;;;5022906;28;20525;-68
2021/12/30 07:52:31;;;;;;;14.15;4.30;;;;;;;;;;5001744;28;20217;-70
2021/12/30 07:54:58;;;;;;;13.48;4.25;;;;;;;;;;5025771;28;20077;-72
2021/12/30 07:57:24;;;;;;;8.48;4.15;;;;;;;;;;5012491;28;20045;-67
2021/12/30 07:59:52;;;;;;;13.20;4.45;;;;;;;;;;5012322;28;20140;-76
2021/12/30 08:02:19;;;;;;;12.55;4.82;;;;;;;;;;5008913;28;20049;-67
2021/12/30 08:04:46;;;;;;;11.68;4.40;;;;;;;;;;5000800;28;20062;-68
2021/12/30 08:07:13;;;;;;;8.15;4.32;;;;;;;;;;5000023;28;20081;-63
2021/12/30 08:09:40;;;;;;;18.65;4.20;;;;;;;;;;5022116;28;20061;-64
2021/12/30 08:12:06;;;;;;;13.00;4.03;;;;;;;;;;4986360;28;20049;-67
2021/12/30 08:14:32;;;;;;;9.38;3.85;;;;;;;;;;5001748;28;20049;-66
2021/12/30 08:17:00;;;;;;;9.77;3.92;;;;;;;;;;5021906;28;20037;-64
2021/12/30 08:19:26;;;;;;;8.00;3.58;;;;;;;;;;5021762;28;20050;-73
2021/12/30 08:21:52;;;;;;;12.38;3.45;;;;;;;;;;5007347;28;20067;-70
2021/12/30 08:24:18;;;;;;;12.48;3.55;;;;;;;;;;5022405;28;20403;-69
2021/12/30 08:26:44;;;;;;;6.65;2.95;;;;;;;;;;5024307;28;20141;-73
2021/12/30 08:29:10;;;;;;;6.03;2.65;;;;;;;;;;5002513;28;20124;-66
2021/12/30 08:31:37;;;;;;;6.65;3.17;;;;;;;;;;5003667;28;20060;-64
2021/12/30 08:34:05;;;;;;;9.05;2.90;;;;;;;;;;5004784;28;20490;-68
2021/12/30 08:36:32;;;;;;;10.00;3.00;;;;;;;;;;5022151;28;20053;-67
2021/12/30 08:38:58;;;;;;;13.60;3.55;;;;;;;;;;5022321;28;20048;-67
2021/12/30 08:41:26;;;;;;;6.47;2.95;;;;;;;;;;5020338;28;20053;-71
2021/12/30 08:43:53;;;;;;;19.55;2.85;;;;;;;;;;4989666;28;20045;-71
2021/12/30 08:46:19;;;;;;;12.82;2.83;;;;;;;;;;5021352;28;20064;-66
2021/12/30 08:48:45;;;;;;;10.65;3.38;;;;;;;;;;5022492;28;20242;-74
2021/12/30 08:51:11;;;;;;;8.90;3.50;;;;;;;;;;5021403;28;20511;-64
2021/12/30 08:53:40;;;;;;;19.45;3.95;;;;;;;;;;5022529;28;20049;-67
2021/12/30 08:56:08;;;;;;;10.80;4.03;;;;;;;;;;4999113;28;20553;-72
2021/12/30 08:58:35;;;;;;;11.43;4.22;;;;;;;;;;5001424;28;20095;-66
2021/12/30 09:01:02;;;;;;;12.70;4.50;;;;;;;;;;4999425;28;20544;-68
2021/12/30 09:03:29;;;;;;;13.18;4.32;;;;;;;;;;5015224;28;20312;-68
2021/12/30 09:05:55;;;;;;;12.13;4.40;;;;;;;;;;5014787;28;20482;-75
2021/12/30 09:08:22;;;;;;;15.27;4.95;;;;;;;;;;5013188;28;20072;-68
2021/12/30 09:10:50;;;;;;;10.27;4.47;;;;;;;;;;5017131;28;20111;-73
2021/12/30 09:13:21;;;;;;;10.77;3.95;;;;;;;;;;5020541;28;20058;-75
2021/12/30 09:15:47;;;;;;;9.40;3.75;;;;;;;;;;5002380;28;20045;-67
2021/12/30 09:18:14;;;;;;;11.57;3.33;;;;;;;;;;4997954;28;20131;-63
2021/12/30 09:20:43;;;;;;;11.00;3.60;;;;;;;;;;5001154;28;20426;-64
2021/12/30 09:23:11;;;;;;;7.15;2.67;;;;;;;;;;5016370;28;20510;-62
2021/12/30 09:25:39;;;;;;;5.97;2.70;;;;;;;;;;5016112;28;20059;-66
2021/12/30 09:28:11;;;;;;;8.00;2.83;;;;;;;;;;5015434;28;21809;-73
2021/12/30 09:30:37;;;;;;;10.65;3.60;;;;;;;;;;5000829;28;20060;-68
2021/12/30 09:33:04;;;;;;;9.20;3.60;;;;;;;;;;5018317;28;20053;-62
2021/12/30 09:35:31;;;;;;;5.97;2.72;;;;;;;;;;5000827;28;20491;-73
2021/12/30 09:37:58;;;;;;;6.25;3.10;;;;;;;;;;5013157;28;20849;-65
2021/12/30 09:40:25;;;;;;;5.55;2.72;;;;;;;;;;5023810;28;20049;-72
2021/12/30 09:43:00;;;;;;;9.32;2.88;;;;;;;;;;5031356;28;20053;-67
2021/12/30 09:45:29;;;;;;;9.70;3.03;;;;;;;;;;5031247;28;20073;-65
2021/12/30 09:47:57;;;;;;;14.10;2.53;;;;;;;;;;5027449;28;20049;-66
2021/12/30 09:50:29;;;;;;;8.00;3.00;;;;;;;;;;5035346;28;20057;-65
2021/12/30 09:52:57;;;;;;;5.80;2.55;;;;;;;;;;5009888;28;20057;-78
2021/12/30 09:55:25;;;;;;;7.22;2.55;;;;;;;;;;5017896;28;20733;-68
2021/12/30 09:57:55;;;;;;;8.57;2.40;;;;;;;;;;5013929;28;20038;-73
2021/12/30 10:00:22;;;;;;;6.85;2.53;;;;;;;;;;5002210;28;20077;-64
2021/12/30 10:02:48;;;;;;;8.95;2.53;;;;;;;;;;5029112;28;20259;-65
2021/12/30 10:05:18;;;;;;;5.70;2.30;;;;;;;;;;5026855;28;20073;-65
2021/12/30 10:07:44;;;;;;;5.45;2.22;;;;;;;;;;5024244;28;20057;-64
2021/12/30 10:10:36;;;;;;;6.43;2.92;;;;;;;;;;5024368;28;20049;-67
2021/12/30 10:13:17;;;;;;;8.15;2.15;;;;;;;;;;5027187;28;20482;-67
2021/12/30 10:15:46;;;;;;;8.15;2.95;;;;;;;;;;5009178;28;20507;-65
2021/12/30 10:18:13;;;;;;;8.20;3.00;;;;;;;;;;5007724;28;20054;-66
2021/12/30 10:20:40;;;;;;;11.48;3.30;;;;;;;;;;5024122;28;20499;-69
2021/12/30 10:23:26;;;;;;;12.25;3.92;;;;;;;;;;5025291;28;20072;-67
2021/12/30 10:25:56;;;;;;;21.60;6.10;;;;;;;;;;5004540;28;20053;-74
2021/12/30 10:28:36;;;;;;;11.18;4.50;;;;;;;;;;5019949;28;20045;-74
2021/12/30 10:31:11;;;;;;;17.70;5.47;;;;;;;;;;5004353;28;20236;-66
2021/12/30 10:33:50;;;;;;;16.08;5.45;;;;;;;;;;5025648;28;20053;-68
2021/12/30 10:36:44;;;;;;;18.85;6.30;;;;;;;;;;4987966;28;20490;-65
2021/12/30 10:39:29;;;;;;;19.03;5.90;;;;;;;;;;4983457;28;20536;-65
2021/12/30 10:42:04;;;;;;;16.13;5.80;;;;;;;;;;5023887;28;20573;-69
2021/12/30 10:44:50;;;;;;;16.60;5.05;;;;;;;;;;5020014;28;20051;-78
2021/12/30 10:47:31;;;;;;;9.45;4.30;;;;;;;;;;5017094;28;20145;-71
2021/12/30 10:50:09;;;;;;;12.25;4.25;;;;;;;;;;5027256;28;20046;-70
2021/12/30 10:52:50;;;;;;;16.40;4.65;;;;;;;;;;5021955;28;20112;-64
2021/12/30 10:55:17;;;;;;;14.27;4.50;;;;;;;;;;5008201;28;20558;-72
2021/12/30 10:57:43;;;;;;;9.35;4.70;;;;;;;;;;5002486;28;21230;-65
2021/12/30 11:00:22;;;;;;;16.45;5.55;;;;;;;;;;5017607;28;20103;-68
2021/12/30 11:02:49;;;;;;;18.77;5.93;;;;;;;;;;5026063;28;20049;-70
2021/12/30 11:05:18;;;;;;;12.70;4.70;;;;;;;;;;5010158;28;20049;-69
2021/12/30 11:07:51;;;;;;;12.90;4.70;;;;;;;;;;5010114;28;20046;-70
2021/12/30 11:10:31;;;;;;;11.55;5.20;;;;;;;;;;5012824;28;20127;-69
2021/12/30 11:13:17;;;;;;;8.82;4.32;;;;;;;;;;5007617;28;20364;-68
2021/12/30 11:15:43;;;;;;;11.50;4.70;;;;;;;;;;5011897;28;20049;-67
2021/12/30 11:18:13;;;;;;;12.52;5.32;;;;;;;;;;5018259;28;20523;-66
2021/12/30 11:20:45;;;;;;;14.65;5.45;;;;;;;;;;5013566;28;20207;-66
2021/12/30 11:23:13;;;;;;;16.15;5.97;;;;;;;;;;5030980;28;20112;-68
2021/12/30 11:25:41;;;;;;;14.48;5.80;;;;;;;;;;5014847;28;20049;-68
2021/12/30 11:28:07;;;;;;;16.63;5.57;;;;;;;;;;5012251;28;20045;-68
2021/12/30 11:30:33;;;;;;;12.82;4.85;;;;;;;;;;5006429;28;20098;-68
2021/12/30 11:32:59;;;;;;;14.32;4.97;;;;;;;;;;5003066;28;20046;-69
2021/12/30 11:35:27;;;;;;;11.75;4.20;;;;;;;;;;5021712;28;20057;-71
2021/12/30 11:37:56;;;;;;;11.02;4.40;;;;;;;;;;5003910;28;20068;-77
2021/12/30 11:40:25;;;;;;;13.50;5.45;;;;;;;;;;5007799;28;20395;-70
2021/12/30 11:42:57;;;;;;;16.08;5.25;;;;;;;;;;5008979;28;20107;-66
2021/12/30 11:45:40;;;;;;;9.80;4.85;;;;;;;;;;5025518;28;20049;-73
2021/12/30 11:48:28;;;;;;;13.10;5.28;;;;;;;;;;5009251;28;20072;-65
2021/12/30 11:51:07;;;;;;;15.95;4.15;;;;;;;;;;5027964;28;20057;-64
2021/12/30 11:53:33;;;;;;;14.32;5.57;;;;;;;;;;5011457;28;20107;-62
2021/12/30 11:56:03;;;;;;;9.40;4.68;;;;;;;;;;5014591;28;20052;-66
2021/12/30 11:58:29;;;;;;;11.02;4.63;;;;;;;;;;5033476;28;20081;-64
2021/12/30 12:00:57;;;;;;;8.38;3.88;;;;;;;;;;5034142;28;20049;-64
2021/12/30 12:03:36;;;;;;;14.27;4.57;;;;;;;;;;5006618;28;20053;-68
2021/12/30 12:06:24;;;;;;;8.25;3.78;;;;;;;;;;5032939;28;20407;-67
2021/12/30 12:08:54;;;;;;;11.88;3.28;;;;;;;;;;5017689;28;20479;-66
2021/12/30 12:11:41;;;;;;;9.98;2.83;;;;;;;;;;5018203;28;20559;-65
2021/12/30 12:14:26;;;;;;;14.40;3.38;;;;;;;;;;5016993;28;20046;-66
2021/12/30 12:17:10;;;;;;;8.38;3.00;;;;;;;;;;5036404;28;20044;-63
2021/12/30 12:19:48;;;;;;;4.18;2.60;;;;;;;;;;5001662;28;20061;-71
2021/12/30 12:22:17;;;;;;;13.93;3.50;;;;;;;;;;5007437;28;20069;-77
2021/12/30 12:24:46;;;;;;;7.93;3.50;;;;;;;;;;5022187;28;20057;-66
2021/12/30 12:27:33;;;;;;;8.63;4.00;;;;;;;;;;5011799;28;20060;-63
2021/12/30 12:30:02;;;;;;;11.88;4.07;;;;;;;;;;5024743;28;20057;-77
2021/12/30 12:32:31;;;;;;;11.40;3.95;;;;;;;;;;5009286;28;20057;-72
2021/12/30 12:34:59;;;;;;;8.40;4.22;;;;;;;;;;5010318;28;20049;-71
2021/12/30 12:37:37;;;;;;;9.18;3.65;;;;;;;;;;5010760;28;20510;-69
2021/12/30 12:40:10;;;;;;;11.07;4.55;;;;;;;;;;5011672;28;20487;-67
2021/12/30 12:42:48;;;;;;;7.03;3.83;;;;;;;;;;5008132;28;20057;-66
2021/12/30 12:45:32;;;;;;;6.53;3.20;;;;;;;;;;5026960;28;20100;-68
2021/12/30 12:48:20;;;;;;;5.80;3.25;;;;;;;;;;5006256;28;20037;-75
2021/12/30 12:50:57;;;;;;;7.35;3.30;;;;;;;;;;5026011;28;20045;-64
2021/12/30 12:53:24;;;;;;;9.10;3.38;;;;;;;;;;5024303;28;20073;-70
2021/12/30 12:55:51;;;;;;;6.32;2.15;;;;;;;;;;5029515;28;20123;-68
2021/12/30 12:58:19;;;;;;;3.85;2.10;;;;;;;;;;5011400;28;20060;-69
2021/12/30 13:00:47;;;;;;;6.40;2.13;;;;;;;;;;5010424;28;20114;-65
2021/12/30 13:03:18;;;;;;;2.88;1.90;;;;;;;;;;5027001;28;20049;-64
2021/12/30 13:06:08;;;;;;;5.55;1.80;;;;;;;;;;5027187;28;20498;-66
2021/12/30 13:08:38;;;;;;;6.30;2.22;;;;;;;;;;4998906;28;20057;-66
2021/12/30 13:11:08;;;;;;;13.68;2.13;;;;;;;;;;5026081;28;20037;-64
2021/12/30 13:13:42;;;;;;;7.07;1.90;;;;;;;;;;5024973;28;20406;-68
2021/12/30 13:16:30;;;;;;;10.80;2.28;;;;;;;;;;5024955;28;20115;-64
2021/12/30 13:18:58;;;;;;;7.05;2.97;;;;;;;;;;5031222;28;20099;-76
2021/12/30 13:21:24;;;;;;;4.57;2.00;;;;;;;;;;5023800;28;20056;-69
2021/12/30 13:23:51;;;;;;;3.20;1.80;;;;;;;;;;5027218;28;20472;-72
2021/12/30 13:26:17;;;;;;;3.25;1.70;;;;;;;;;;5011064;28;20422;-64
2021/12/30 13:28:47;;;;;;;4.45;1.67;;;;;;;;;;5026756;28;20057;-64
2021/12/30 13:31:15;;;;;;;3.60;1.90;;;;;;;;;;5013407;28;20065;-68
2021/12/30 13:33:56;;;;;;;4.75;1.73;;;;;;;;;;4994609;28;20514;-65
2021/12/30 13:36:25;;;;;;;3.40;1.48;;;;;;;;;;4995885;28;20703;-65
2021/12/30 13:38:52;;;;;;;4.07;1.50;;;;;;;;;;5027705;28;20045;-68
2021/12/30 13:41:20;;;;;;;3.53;1.50;;;;;;;;;;5027916;28;20502;-80
2021/12/30 13:43:47;;;;;;;6.72;1.65;;;;;;;;;;5029203;28;20099;-63
2021/12/30 13:46:15;;;;;;;5.32;2.03;;;;;;;;;;5009094;28;20103;-65
2021/12/30 13:48:44;;;;;;;4.00;1.90;;;;;;;;;;5028908;28;20041;-64
2021/12/30 13:51:16;;;;;;;17.70;5.25;;;;;;;;;;5013882;28;20072;-63
2021/12/30 13:53:45;;;;;;;10.07;4.55;;;;;;;;;;5026840;28;20050;-64
2021/12/30 13:56:19;;;;;;;8.32;4.45;;;;;;;;;;5009934;28;20065;-69
2021/12/30 13:58:46;;;;;;;;;;;;;;;;;;5003184;28;20389;-64
2021/12/30 14:01:15;;;;;;;18.27;6.35;;;;;;;;;;5026353;28;19981;-65
2021/12/30 14:03:47;;;;;;;10.82;5.30;;;;;;;;;;5027130;28;20080;-72
2021/12/30 14:06:19;;;;;;;10.73;5.00;;;;;;;;;;5009356;28;20045;-68
2021/12/30 14:08:53;;;;;;;8.20;4.72;;;;;;;;;;5028362;28;20053;-70
2021/12/30 14:11:32;;;;;;;13.85;5.60;;;;;;;;;;5026587;28;20108;-79
2021/12/30 14:14:00;;;;;;;11.57;5.28;;;;;;;;;;5019691;28;20115;-70
2021/12/30 14:16:31;;;;;;;11.65;5.22;;;;;;;;;;5022268;28;20075;-72
2021/12/30 14:18:59;;;;;;;15.10;5.93;;;;;;;;;;4986655;28;20045;-66
2021/12/30 14:21:27;;;;;;;14.05;6.18;;;;;;;;;;5008307;28;20084;-79
2021/12/30 14:23:55;;;;;;;17.40;6.63;;;;;;;;;;5007771;28;20491;-64
2021/12/30 14:26:25;;;;;;;12.60;6.82;;;;;;;;;;5025676;28;20076;-77
2021/12/30 14:28:55;;;;;;;15.05;6.97;;;;;;;;;;5007923;28;20058;-65
2021/12/30 14:31:29;;;;;;;20.30;7.43;;;;;;;;;;5010763;28;20065;-71
2021/12/30 14:34:08;;;;;;;14.95;7.35;;;;;;;;;;5008472;28;20072;-68
2021/12/30 14:36:55;;;;;;;16.65;7.07;;;;;;;;;;5007473;28;20042;-76
2021/12/30 14:39:42;;;;;;;18.85;7.25;;;;;;;;;;5027765;28;20057;-66
2021/12/30 14:42:30;;;;;;;14.50;7.00;;;;;;;;;;5027219;28;20046;-69
2021/12/30 14:45:10;;;;;;;15.48;7.10;;;;;;;;;;4995803;28;20487;-67
2021/12/30 14:47:40;;;;;;;11.00;6.85;;;;;;;;;;4997211;28;20506;-66
2021/12/30 14:50:13;;;;;;;13.93;7.10;;;;;;;;;;5032436;28;20479;-65
2021/12/30 14:52:47;;;;;;;20.55;7.47;;;;;;;;;;5030933;28;20143;-65
2021/12/30 14:55:34;;;;;;;16.35;8.85;;;;;;;;;;5033125;28;20061;-67